Time;durP1;ratioP1;P1;durP2;ratioP2;P2;SDS_P1;SDS_P2;PMS_P1;PMS_P2;Temp;Humidity;BMP_temperature;BMP_pressure;BME280_temperature;BME280_humidity;BME280_pressure;Samples;Min_cycle;Max_cycle;Signal;HPM_P1;HPM_P2
2023/01/18 00:00:39;;;;;;;14.90;7.55;;;;;;;1.34;74.48;99059.31;4993741;28;20030;-60
2023/01/18 00:03:07;;;;;;;15.90;8.13;;;;;;;1.34;74.53;99046.31;4993528;28;20392;-60
2023/01/18 00:05:34;;;;;;;12.02;7.45;;;;;;;1.35;73.93;99061.06;4993600;28;20121;-59
2023/01/18 00:07:59;;;;;;;14.93;7.95;;;;;;;1.29;74.11;99060.09;4993595;28;20026;-60
2023/01/18 00:10:25;;;;;;;13.77;7.80;;;;;;;1.23;74.46;99055.63;4993788;28;20026;-60
2023/01/18 00:12:50;;;;;;;14.00;7.53;;;;;;;1.14;74.27;99056.34;4993803;28;20018;-60
2023/01/18 00:15:16;;;;;;;15.98;7.90;;;;;;;1.06;74.10;99055.31;4993425;28;20030;-60
2023/01/18 00:17:50;;;;;;;15.25;7.57;;;;;;;0.99;75.91;99056.06;4993662;28;20384;-60
2023/01/18 00:20:17;;;;;;;15.43;7.93;;;;;;;0.99;76.87;99058.66;4977716;28;20031;-60
2023/01/18 00:22:43;;;;;;;16.25;8.27;;;;;;;1.06;77.45;99057.03;4993418;28;20473;-60
2023/01/18 00:25:09;;;;;;;13.98;7.45;;;;;;;1.11;76.40;99058.88;4993489;28;20026;-60
2023/01/18 00:27:39;;;;;;;15.60;7.70;;;;;;;1.10;75.11;99064.06;4993689;28;20121;-60
2023/01/18 00:30:06;;;;;;;15.00;7.43;;;;;;;1.05;74.88;99063.97;4993724;28;20034;-61
2023/01/18 00:32:32;;;;;;;12.20;7.35;;;;;;;1.02;75.44;99063.03;4993252;28;20039;-60
2023/01/18 00:34:57;;;;;;;15.60;8.05;;;;;;;1.04;76.05;99061.34;4993392;28;20057;-60
2023/01/18 00:37:23;;;;;;;20.67;8.07;;;;;;;1.05;75.71;99071.75;4993302;28;20035;-61
2023/01/18 00:39:49;;;;;;;15.00;7.50;;;;;;;1.10;75.40;99075.34;4993164;28;20026;-60
2023/01/18 00:44:59;;;;;;;12.85;7.35;;;;;;;1.24;74.81;99065.19;4993233;28;20061;-61
2023/01/18 00:47:24;;;;;;;15.20;7.55;;;;;;;1.33;74.80;99072.28;4993132;28;20026;-60
2023/01/18 00:49:49;;;;;;;14.45;7.43;;;;;;;1.47;75.28;99065.63;4993260;28;20026;-60
2023/01/18 00:52:15;;;;;;;16.52;7.22;;;;;;;1.52;74.65;99068.31;4993156;28;20026;-60
2023/01/18 00:54:40;;;;;;;13.65;7.93;;;;;;;1.47;73.76;99076.06;4993178;28;20027;-59
2023/01/18 00:57:05;;;;;;;12.65;7.30;;;;;;;1.37;73.40;99061.09;4994942;28;20113;-60
2023/01/18 00:59:31;;;;;;;17.15;7.60;;;;;;;1.36;74.56;99069.75;4996897;28;20026;-59
2023/01/18 01:01:56;;;;;;;12.30;7.18;;;;;;;1.23;73.61;99071.25;4996627;28;20452;-60
2023/01/18 01:07:05;;;;;;;14.18;7.25;;;;;;;0.97;75.37;99081.13;4996867;28;20045;-60
2023/01/18 01:09:31;;;;;;;12.98;7.35;;;;;;;0.88;75.12;99073.16;4996721;28;20030;-60
2023/01/18 01:26:07;;;;;;;15.52;7.28;;;;;;;0.77;74.89;99087.63;4996532;28;20045;-61
2023/01/18 01:28:49;;;;;;;13.93;7.07;;;;;;;0.69;74.58;99087.50;4996210;28;20502;-60
2023/01/18 01:31:16;;;;;;;13.30;7.13;;;;;;;0.59;75.77;99086.38;4996435;28;20038;-60
2023/01/18 01:33:43;;;;;;;12.35;7.05;;;;;;;0.52;76.41;99091.44;4996356;28;20034;-60
2023/01/18 01:36:14;;;;;;;14.05;6.82;;;;;;;0.46;76.25;99097.34;4995828;28;20598;-59
2023/01/18 01:38:40;;;;;;;13.32;7.10;;;;;;;0.44;76.38;99102.53;4995987;28;20030;-60
2023/01/18 01:41:26;;;;;;;12.82;6.97;;;;;;;0.45;76.30;99106.88;4995922;28;20539;-60
2023/01/18 01:43:58;;;;;;;12.38;7.20;;;;;;;0.41;76.74;99101.56;4995782;28;20113;-60
2023/01/18 01:46:42;;;;;;;13.63;7.40;;;;;;;0.41;76.68;99109.38;4995659;28;20022;-60
2023/01/18 01:49:47;;;;;;;13.85;6.55;;;;;;;0.44;76.73;99118.13;4995678;28;20477;-60
2023/01/18 01:52:19;;;;;;;12.35;7.25;;;;;;;0.47;76.27;99117.28;4965400;28;20392;-60
2023/01/18 01:54:50;;;;;;;11.80;6.53;;;;;;;0.56;76.54;99117.53;4995739;28;20026;-60
2023/01/18 01:57:23;;;;;;;12.32;6.50;;;;;;;0.63;75.97;99111.59;4995577;28;20289;-60
2023/01/18 02:00:07;;;;;;;13.73;6.88;;;;;;;0.60;75.58;99115.84;4995637;28;20034;-60
2023/01/18 02:02:33;;;;;;;18.10;7.03;;;;;;;0.50;76.08;99107.84;4995775;28;20042;-60
2023/01/18 02:05:01;;;;;;;11.82;6.97;;;;;;;0.41;76.03;99107.66;4995415;28;20106;-60
2023/01/18 02:07:30;;;;;;;14.88;6.82;;;;;;;0.45;76.66;99117.28;4994887;28;20030;-61
2023/01/18 02:09:56;;;;;;;14.77;7.00;;;;;;;0.43;76.62;99118.97;4995248;28;20113;-60
2023/01/18 02:12:22;;;;;;;11.70;6.65;;;;;;;0.46;76.69;99119.00;4995552;28;20038;-61
2023/01/18 02:14:47;;;;;;;13.50;6.70;;;;;;;0.54;76.61;99116.59;4995303;28;20037;-60
2023/01/18 02:17:38;;;;;;;15.65;6.85;;;;;;;0.67;76.61;99113.44;4995011;28;20026;-60
2023/01/18 02:20:23;;;;;;;12.05;7.13;;;;;;;0.71;75.85;99111.78;4995086;28;20480;-60
2023/01/18 02:23:15;;;;;;;16.40;7.07;;;;;;;0.76;75.33;99102.34;4995196;28;20037;-60
2023/01/18 02:26:18;;;;;;;11.20;6.13;;;;;;;0.83;76.34;99108.59;4995076;28;20030;-60
2023/01/18 02:28:55;;;;;;;11.27;6.97;;;;;;;0.81;75.95;99112.84;4994973;28;20117;-60
2023/01/18 02:31:30;;;;;;;12.32;6.78;;;;;;;0.89;76.17;99119.09;4995135;28;20365;-60
2023/01/18 02:34:15;;;;;;;11.45;6.63;;;;;;;0.86;74.92;99121.66;4995016;28;20504;-60
2023/01/18 02:37:03;;;;;;;12.95;6.57;;;;;;;0.78;75.53;99120.59;4995049;28;20022;-60
2023/01/18 02:39:48;;;;;;;17.48;6.80;;;;;;;0.73;75.38;99123.09;4994843;28;20500;-60
2023/01/18 02:47:53;;;;;;;16.80;6.65;;;;;;;0.43;76.33;99139.75;4995127;28;20073;-60
2023/01/18 02:50:25;;;;;;;13.32;6.88;;;;;;;0.28;76.42;99133.31;4994579;28;20388;-60
2023/01/18 02:52:52;;;;;;;14.15;6.70;;;;;;;0.14;76.75;99139.06;4994680;28;20022;-60
2023/01/18 02:55:40;;;;;;;14.98;6.93;;;;;;;0.11;77.72;99145.88;4994755;28;20030;-60
2023/01/18 02:58:20;;;;;;;14.95;6.68;;;;;;;0.17;78.19;99130.44;4994512;28;20034;-60
2023/01/18 03:00:49;;;;;;;13.05;7.15;;;;;;;0.22;77.16;99134.91;4994758;28;20108;-60
2023/01/18 03:03:18;;;;;;;12.90;7.20;;;;;;;0.15;77.19;99138.19;4994641;28;20014;-60
2023/01/18 03:05:45;;;;;;;16.23;7.53;;;;;;;0.14;77.54;99138.19;4994386;28;20045;-59
2023/01/18 03:08:24;;;;;;;11.68;6.72;;;;;;;0.12;77.94;99143.31;4994302;28;20546;-60
2023/01/18 03:10:55;;;;;;;13.43;7.00;;;;;;;0.05;77.48;99131.03;4994625;28;20380;-60
2023/01/18 03:13:40;;;;;;;12.50;7.50;;;;;;;0.04;77.56;99139.63;4994295;28;20487;-60
2023/01/18 03:16:11;;;;;;;12.27;6.90;;;;;;;-0.05;78.06;99136.81;4994041;28;20082;-60
2023/01/18 03:18:59;;;;;;;12.50;6.97;;;;;;;-0.09;78.56;99135.84;4994239;28;20045;-59
2023/01/18 03:21:41;;;;;;;10.68;6.65;;;;;;;-0.10;78.96;99134.09;4994275;28;20126;-60
2023/01/18 03:24:09;;;;;;;11.65;6.78;;;;;;;-0.13;78.88;99146.13;4994155;28;20528;-60
2023/01/18 03:26:41;;;;;;;14.32;7.07;;;;;;;-0.19;79.56;99141.66;4994113;28;20045;-60
2023/01/18 03:34:44;;;;;;;17.58;7.13;;;;;;;-0.29;79.43;99142.28;4994141;28;20121;-60
2023/01/18 03:37:15;;;;;;;14.68;7.15;;;;;;;-0.32;79.81;99149.97;4993817;28;20038;-60
2023/01/18 03:39:47;;;;;;;14.45;6.95;;;;;;;-0.32;80.06;99152.56;4993963;28;20030;-60
2023/01/18 03:42:18;;;;;;;11.18;6.88;;;;;;;-0.28;79.50;99150.09;4993931;28;20112;-60
2023/01/18 03:44:50;;;;;;;12.45;7.32;;;;;;;-0.28;79.33;99157.88;4993813;28;20144;-59
2023/01/18 03:47:16;;;;;;;;;;;;;;;-0.27;79.03;99159.63;4994165;28;20085;-60
2023/01/18 03:49:41;;;;;;;13.90;6.80;;;;;;;-0.42;79.26;99164.41;4993865;28;19925;-60
2023/01/18 03:52:17;;;;;;;14.00;7.03;;;;;;;-0.48;79.62;99171.13;5009014;28;20559;-60
2023/01/18 03:55:06;;;;;;;16.60;7.05;;;;;;;-0.48;79.97;99176.34;5013302;28;20034;-60
2023/01/18 03:57:45;;;;;;;11.52;6.50;;;;;;;-0.33;79.54;99187.16;4992208;28;20042;-61
2023/01/18 04:00:13;;;;;;;14.45;6.18;;;;;;;-0.29;78.81;99182.06;5013397;28;20030;-61
2023/01/18 04:02:38;;;;;;;11.98;6.45;;;;;;;-0.16;79.44;99185.00;5013324;28;20021;-60
2023/01/18 04:05:05;;;;;;;16.58;7.00;;;;;;;-0.13;78.87;99185.97;5013452;28;20030;-60
2023/01/18 04:07:31;;;;;;;11.30;6.63;;;;;;;-0.14;78.38;99197.16;5013537;28;20438;-60
2023/01/18 04:10:00;;;;;;;17.30;6.85;;;;;;;-0.19;78.26;99197.88;5013255;28;20092;-60
2023/01/18 04:12:25;;;;;;;16.33;7.28;;;;;;;-0.24;78.42;99196.91;5013187;28;20026;-60
2023/01/18 04:14:51;;;;;;;12.60;6.75;;;;;;;-0.28;78.98;99196.81;5013238;28;20022;-60
2023/01/18 04:17:17;;;;;;;13.93;7.13;;;;;;;-0.27;79.76;99208.94;5013152;28;20072;-60
2023/01/18 04:19:43;;;;;;;13.15;6.93;;;;;;;-0.24;79.48;99204.69;5013048;28;20066;-60
2023/01/18 04:22:09;;;;;;;14.30;7.18;;;;;;;-0.23;79.13;99206.44;5012961;28;20057;-61
2023/01/18 04:24:34;;;;;;;11.93;6.90;;;;;;;-0.22;78.79;99205.59;5013043;28;20030;-61
2023/01/18 04:27:00;;;;;;;14.45;7.07;;;;;;;-0.24;78.63;99209.88;5013340;28;20025;-61
2023/01/18 04:29:26;;;;;;;11.27;6.88;;;;;;;-0.27;78.55;99202.88;5013296;28;20026;-60
2023/01/18 04:31:52;;;;;;;12.32;6.72;;;;;;;-0.33;78.96;99206.19;5014890;28;20040;-61
2023/01/18 04:34:17;;;;;;;11.95;6.72;;;;;;;-0.36;78.96;99195.72;5016757;28;20384;-61
2023/01/18 04:36:42;;;;;;;13.25;7.35;;;;;;;-0.37;79.40;99206.94;5016884;28;20036;-61
2023/01/18 04:39:11;;;;;;;14.43;7.35;;;;;;;-0.37;79.81;99206.94;5016726;28;20041;-60
2023/01/18 04:41:37;;;;;;;13.38;7.45;;;;;;;-0.34;79.52;99208.75;5016549;28;20054;-61
2023/01/18 04:44:02;;;;;;;15.32;7.07;;;;;;;-0.30;79.68;99210.56;5016618;28;20057;-61
2023/01/18 04:46:27;;;;;;;13.98;7.15;;;;;;;-0.34;79.61;99217.41;5016418;28;20108;-61
2023/01/18 04:48:53;;;;;;;12.48;7.38;;;;;;;-0.32;79.67;99204.47;5016564;28;20022;-61
2023/01/18 04:51:19;;;;;;;14.25;7.70;;;;;;;-0.32;80.14;99220.03;5016478;28;20026;-61
2023/01/18 04:53:45;;;;;;;14.07;7.05;;;;;;;-0.28;80.31;99214.97;5016393;28;20026;-60
2023/01/18 04:56:11;;;;;;;19.63;7.60;;;;;;;-0.25;79.62;99219.38;5016295;28;20487;-61
2023/01/18 04:58:36;;;;;;;16.38;7.72;;;;;;;-0.18;80.36;99223.88;5016461;28;20030;-60
2023/01/18 05:01:03;;;;;;;15.05;8.18;;;;;;;-0.20;79.76;99220.38;5016343;28;20491;-61
2023/01/18 05:03:29;;;;;;;14.82;7.38;;;;;;;-0.18;79.90;99223.88;5016199;28;20033;-60
2023/01/18 05:05:55;;;;;;;18.63;8.50;;;;;;;-0.13;79.26;99234.38;5016164;28;20037;-61
2023/01/18 05:08:21;;;;;;;17.42;7.97;;;;;;;-0.14;78.59;99237.81;5016156;28;20483;-61
2023/01/18 05:10:46;;;;;;;14.73;7.57;;;;;;;-0.17;79.93;99236.03;5016086;28;20080;-61
2023/01/18 05:13:11;;;;;;;16.35;8.02;;;;;;;-0.22;79.27;99244.50;5016036;28;20112;-61
2023/01/18 05:15:37;;;;;;;17.00;8.25;;;;;;;-0.25;79.46;99237.53;5015752;28;20479;-60
2023/01/18 05:18:02;;;;;;;18.13;8.60;;;;;;;-0.30;79.56;99246.88;5015857;28;20088;-61
2023/01/18 05:20:28;;;;;;;16.45;8.18;;;;;;;-0.31;80.04;99246.00;5016195;28;20030;-61
2023/01/18 05:22:53;;;;;;;16.33;8.02;;;;;;;-0.30;80.05;99246.88;5015893;28;20034;-61
2023/01/18 05:25:19;;;;;;;14.82;8.02;;;;;;;-0.33;80.67;99254.63;5015820;28;20032;-60
2023/01/18 05:27:44;;;;;;;16.38;8.40;;;;;;;-0.32;80.32;99257.25;5016058;28;20387;-61
2023/01/18 05:30:10;;;;;;;15.23;7.97;;;;;;;-0.37;80.85;99256.22;5015757;28;20030;-61
2023/01/18 05:32:36;;;;;;;14.50;8.07;;;;;;;-0.46;81.28;99249.91;5015719;28;20058;-61
2023/01/18 05:35:03;;;;;;;15.40;8.93;;;;;;;-0.47;81.50;99261.09;5015617;28;20147;-60
2023/01/18 05:37:28;;;;;;;18.55;8.57;;;;;;;-0.41;81.76;99256.97;5015468;28;20025;-60
2023/01/18 05:39:54;;;;;;;14.70;8.60;;;;;;;-0.36;81.31;99262.31;5015665;28;20076;-60
2023/01/18 05:42:19;;;;;;;12.48;7.93;;;;;;;-0.30;81.37;99265.97;5015382;28;20022;-60
2023/01/18 05:44:44;;;;;;;15.73;8.57;;;;;;;-0.29;81.46;99262.53;5015138;28;20050;-60
2023/01/18 05:47:11;;;;;;;14.77;8.40;;;;;;;-0.30;81.05;99265.97;5015106;28;20050;-60
2023/01/18 05:49:36;;;;;;;14.65;8.55;;;;;;;-0.27;82.10;99267.75;5015409;28;20038;-61
2023/01/18 05:52:02;;;;;;;15.65;8.77;;;;;;;-0.22;81.32;99273.06;5015277;28;20118;-60
2023/01/18 05:54:27;;;;;;;17.27;9.02;;;;;;;-0.18;81.21;99269.72;5015366;28;20037;-60
2023/01/18 05:56:53;;;;;;;15.60;9.15;;;;;;;-0.13;81.49;99273.31;5015176;28;20118;-61
2023/01/18 05:59:18;;;;;;;17.30;9.32;;;;;;;-0.16;80.83;99283.66;5015133;28;20128;-61
2023/01/18 06:01:43;;;;;;;16.10;8.93;;;;;;;-0.26;80.77;99282.47;5015347;28;20110;-61
2023/01/18 06:04:09;;;;;;;16.33;9.20;;;;;;;-0.38;81.27;99292.53;5015028;28;20048;-60
2023/01/18 06:06:34;;;;;;;17.58;9.57;;;;;;;-0.48;81.53;99288.75;5015310;28;20030;-60
2023/01/18 06:09:00;;;;;;;22.50;10.38;;;;;;;-0.64;82.50;99287.44;5014941;28;20084;-61
2023/01/18 06:11:26;;;;;;;17.63;9.60;;;;;;;-0.74;82.70;99284.53;5014852;28;20034;-60
2023/01/18 06:13:51;;;;;;;15.02;8.75;;;;;;;-0.82;83.63;99292.94;5014898;28;20036;-61
2023/01/18 06:16:17;;;;;;;20.33;9.32;;;;;;;-0.75;83.52;99301.78;5014653;28;20116;-61
2023/01/18 06:18:42;;;;;;;21.45;9.48;;;;;;;-0.69;82.99;99301.97;5014933;28;20033;-60
2023/01/18 06:21:09;;;;;;;16.63;9.38;;;;;;;-0.75;82.62;99306.97;5014680;28;20030;-60
2023/01/18 06:23:35;;;;;;;17.17;9.10;;;;;;;-0.76;83.42;99302.63;5014618;28;20038;-60
2023/01/18 06:26:00;;;;;;;16.95;9.48;;;;;;;-0.70;82.87;99320.09;5014689;28;20041;-60
2023/01/18 06:28:26;;;;;;;15.15;8.68;;;;;;;-0.79;82.66;99313.78;5014587;28;20026;-61
2023/01/18 06:30:53;;;;;;;15.27;9.13;;;;;;;-0.86;82.90;99317.00;5014605;28;20427;-61
2023/01/18 06:33:19;;;;;;;18.05;9.30;;;;;;;-0.94;83.00;99318.50;5014435;28;20025;-61
2023/01/18 06:35:44;;;;;;;17.95;9.38;;;;;;;-0.95;83.39;99329.69;4996952;28;20026;-61
2023/01/18 06:38:10;;;;;;;21.20;10.35;;;;;;;-0.96;83.80;99321.88;5014347;28;20037;-60
2023/01/18 06:40:35;;;;;;;16.30;9.82;;;;;;;-1.04;83.84;99332.84;5014389;28;20026;-60
2023/01/18 06:43:01;;;;;;;19.75;9.73;;;;;;;-1.09;84.03;99328.38;5014341;28;20096;-60
2023/01/18 06:45:28;;;;;;;16.95;9.27;;;;;;;-1.13;84.59;99329.97;5014019;28;20058;-61
2023/01/18 06:47:54;;;;;;;17.08;9.57;;;;;;;-1.04;84.48;99337.16;5014239;28;20117;-60
2023/01/18 06:50:20;;;;;;;17.80;9.60;;;;;;;-0.98;84.43;99339.97;5014278;28;20022;-61
2023/01/18 06:52:45;;;;;;;18.50;10.18;;;;;;;-0.92;83.91;99354.84;5014222;28;20096;-60
2023/01/18 06:55:12;;;;;;;21.88;10.15;;;;;;;-0.86;84.20;99353.31;4992983;28;20420;-60
2023/01/18 06:57:38;;;;;;;15.77;9.80;;;;;;;-0.85;83.83;99354.22;4994370;28;20463;-60
2023/01/18 07:00:07;;;;;;;16.95;10.18;;;;;;;-0.95;83.28;99352.13;4994467;28;20026;-60
2023/01/18 07:02:34;;;;;;;17.10;9.68;;;;;;;-1.10;83.93;99357.72;4994434;28;20477;-60
2023/01/18 07:05:00;;;;;;;19.25;10.02;;;;;;;-1.17;84.31;99373.88;4994353;28;20373;-61
2023/01/18 07:07:26;;;;;;;19.15;9.90;;;;;;;-1.18;84.72;99370.41;4994307;28;20026;-61
2023/01/18 07:09:51;;;;;;;16.55;9.32;;;;;;;-1.17;84.80;99366.97;4994641;28;20441;-61
2023/01/18 07:12:17;;;;;;;20.33;10.20;;;;;;;-1.16;84.77;99371.31;4994533;28;20532;-60
2023/01/18 07:14:42;;;;;;;19.58;9.82;;;;;;;-1.13;84.76;99374.03;4994483;28;20053;-60
2023/01/18 07:17:07;;;;;;;20.42;9.70;;;;;;;-1.10;84.89;99379.31;4993921;28;20030;-61
2023/01/18 07:19:34;;;;;;;17.35;9.75;;;;;;;-1.10;84.95;99379.31;4994157;28;20472;-61
2023/01/18 07:22:00;;;;;;;17.50;10.63;;;;;;;-1.11;84.95;99385.34;4994033;28;20033;-60
2023/01/18 07:24:26;;;;;;;17.30;9.90;;;;;;;-1.18;84.97;99387.69;4994077;28;20540;-61
2023/01/18 07:26:51;;;;;;;23.02;10.45;;;;;;;-1.18;85.68;99387.69;4994132;28;20101;-59
2023/01/18 07:29:16;;;;;;;19.15;9.75;;;;;;;-1.18;85.63;99388.56;4994233;28;20022;-60
2023/01/18 07:31:42;;;;;;;17.33;9.70;;;;;;;-1.21;85.67;99384.97;4993936;28;20468;-60
2023/01/18 07:34:08;;;;;;;17.75;9.60;;;;;;;-1.26;85.87;99388.28;4994179;28;20058;-61
2023/01/18 07:36:34;;;;;;;19.58;9.88;;;;;;;-1.29;86.17;99388.16;4993862;28;20476;-61
2023/01/18 07:39:01;;;;;;;18.85;10.05;;;;;;;-1.24;86.09;99395.22;4994118;28;20022;-60
2023/01/18 07:41:27;;;;;;;16.15;9.35;;;;;;;-1.23;86.24;99391.81;4994058;28;20041;-60
2023/01/18 07:43:54;;;;;;;18.00;9.85;;;;;;;-1.11;86.42;99400.03;4993699;28;20019;-60
2023/01/18 07:46:20;;;;;;;16.27;8.95;;;;;;;-1.02;85.47;99406.38;4993814;28;20126;-60
2023/01/18 07:48:49;;;;;;;19.42;10.02;;;;;;;-1.06;85.32;99407.13;4993762;28;20118;-60
2023/01/18 07:51:14;;;;;;;19.40;9.55;;;;;;;-1.05;85.12;99405.41;4992563;28;20093;-60
2023/01/18 07:53:40;;;;;;;18.45;9.52;;;;;;;-1.07;85.16;99404.44;4994013;28;20477;-60
2023/01/18 07:56:14;;;;;;;16.52;9.25;;;;;;;-1.10;85.27;99417.31;4993613;28;20026;-60
2023/01/18 07:58:40;;;;;;;18.13;9.73;;;;;;;-1.12;85.34;99424.16;4994000;28;20046;-60
2023/01/18 08:01:09;;;;;;;14.65;9.27;;;;;;;-1.12;85.84;99409.47;4993695;28;20444;-60
2023/01/18 08:03:35;;;;;;;18.40;9.48;;;;;;;-1.08;85.87;99407.88;4993645;28;20105;-60
2023/01/18 08:06:02;;;;;;;18.08;9.52;;;;;;;-1.05;85.75;99410.59;4993954;28;20034;-59
2023/01/18 08:08:28;;;;;;;16.80;9.18;;;;;;;-0.98;85.65;99422.06;4997661;28;20439;-59
2023/01/18 08:10:59;;;;;;;19.98;9.50;;;;;;;-0.94;85.68;99421.28;4997902;28;20029;-60
2023/01/18 08:13:25;;;;;;;19.20;9.95;;;;;;;-0.93;85.28;99433.47;4997532;28;20109;-60
2023/01/18 08:15:52;;;;;;;21.05;9.48;;;;;;;-0.95;85.24;99435.97;4997372;28;20109;-59
2023/01/18 08:18:17;;;;;;;16.92;9.35;;;;;;;-0.97;85.50;99450.63;4997207;28;20492;-59
2023/01/18 08:20:44;;;;;;;22.20;10.73;;;;;;;-0.96;85.80;99447.19;4997336;28;20138;-60
2023/01/18 08:23:09;;;;;;;17.65;9.65;;;;;;;-0.95;85.97;99450.66;4997331;28;20045;-59
2023/01/18 08:25:35;;;;;;;15.38;9.23;;;;;;;-0.94;86.09;99437.75;4997279;28;20038;-61
2023/01/18 08:28:02;;;;;;;16.73;9.60;;;;;;;-0.94;86.36;99445.53;4997531;28;20030;-60
2023/01/18 08:30:31;;;;;;;20.20;9.50;;;;;;;-0.90;86.43;99446.50;4997166;28;20027;-61
2023/01/18 08:32:59;;;;;;;16.92;9.43;;;;;;;-0.91;86.87;99436.97;4997353;28;20037;-59
2023/01/18 08:35:29;;;;;;;14.82;9.25;;;;;;;-0.86;86.45;99443.19;4997148;28;20480;-59
2023/01/18 08:37:56;;;;;;;16.48;9.35;;;;;;;-0.76;86.46;99442.69;4997393;28;20031;-59
2023/01/18 08:40:22;;;;;;;20.67;9.65;;;;;;;-0.62;86.02;99458.69;4996833;28;20027;-59
2023/01/18 08:42:48;;;;;;;15.98;9.45;;;;;;;-0.49;85.67;99463.44;4997018;28;20069;-59
2023/01/18 08:45:15;;;;;;;20.67;10.40;;;;;;;-0.43;85.33;99462.75;4996565;28;20508;-60
2023/01/18 08:47:41;;;;;;;16.67;9.43;;;;;;;-0.39;84.95;99470.69;4997122;28;20125;-60
2023/01/18 08:50:09;;;;;;;16.20;8.82;;;;;;;-0.38;85.23;99472.47;4996840;28;20030;-60
2023/01/18 08:52:34;;;;;;;17.75;9.13;;;;;;;-0.30;85.33;99481.38;4996702;28;20019;-59
2023/01/18 08:55:01;;;;;;;15.02;9.10;;;;;;;-0.23;85.42;99476.38;4996824;28;20034;-59
2023/01/18 08:57:27;;;;;;;20.35;9.23;;;;;;;-0.08;85.83;99476.84;4996847;28;20046;-59
2023/01/18 08:59:55;;;;;;;19.77;9.60;;;;;;;0.15;85.33;99481.03;4996714;28;20099;-59
2023/01/18 09:02:20;;;;;;;16.92;9.38;;;;;;;0.35;83.84;99476.44;4996604;28;20085;-59
2023/01/18 09:04:47;;;;;;;17.13;9.10;;;;;;;0.62;83.30;99486.72;4996586;28;20026;-59
2023/01/18 09:07:13;;;;;;;17.05;9.20;;;;;;;0.82;83.09;99489.91;4996451;28;20038;-59
2023/01/18 09:09:39;;;;;;;15.70;9.15;;;;;;;0.95;82.29;99493.72;4996525;28;20034;-59
2023/01/18 09:12:04;;;;;;;18.90;9.57;;;;;;;1.13;82.24;99493.31;4996743;28;20085;-59
2023/01/18 09:14:29;;;;;;;15.68;8.82;;;;;;;1.27;81.25;99496.28;4996516;28;20030;-61
2023/01/18 09:16:55;;;;;;;16.13;8.52;;;;;;;1.40;81.59;99500.97;4995761;28;20027;-60
2023/01/18 09:19:20;;;;;;;14.40;8.48;;;;;;;1.52;80.90;99503.00;4996119;28;20038;-60
2023/01/18 09:21:47;;;;;;;12.82;7.93;;;;;;;1.62;79.53;99499.78;4979028;28;20014;-60
2023/01/18 09:24:13;;;;;;;12.95;8.27;;;;;;;1.74;79.43;99503.56;4996262;28;20034;-60
2023/01/18 09:26:39;;;;;;;15.45;8.43;;;;;;;1.86;79.51;99505.59;4995876;28;20033;-60
2023/01/18 09:29:05;;;;;;;14.02;8.02;;;;;;;2.02;78.09;99517.25;4996409;28;20074;-60
2023/01/18 09:31:30;;;;;;;15.95;8.80;;;;;;;2.10;77.77;99513.13;4995947;28;20101;-61
2023/01/18 09:33:56;;;;;;;15.70;8.02;;;;;;;2.31;77.72;99524.84;4996027;28;20033;-60
2023/01/18 09:36:25;;;;;;;13.70;8.18;;;;;;;2.54;76.70;99514.94;4995972;28;20029;-61
2023/01/18 09:38:51;;;;;;;13.20;8.18;;;;;;;2.79;75.93;99519.81;4996186;28;20027;-61
2023/01/18 09:41:35;;;;;;;12.75;7.72;;;;;;;3.13;76.21;99529.19;4995959;28;20027;-61
2023/01/18 09:44:08;;;;;;;17.27;8.32;;;;;;;3.35;74.95;99538.31;4995827;28;20029;-61
2023/01/18 09:46:37;;;;;;;16.33;8.40;;;;;;;3.44;73.29;99530.66;4977879;28;20114;-61
2023/01/18 09:49:05;;;;;;;12.95;7.57;;;;;;;3.71;72.62;99542.41;4976362;28;20473;-61
2023/01/18 09:51:41;;;;;;;12.48;7.97;;;;;;;3.88;72.10;99537.47;4976278;28;20457;-62
2023/01/18 09:54:28;;;;;;;15.93;8.18;;;;;;;4.00;72.57;99541.19;4976349;28;20465;-62
2023/01/18 09:57:11;;;;;;;13.32;7.43;;;;;;;4.13;71.63;99534.41;4976057;28;20374;-62
2023/01/18 09:59:42;;;;;;;12.82;7.53;;;;;;;4.10;71.62;99542.19;4976221;28;20105;-63
2023/01/18 10:02:22;;;;;;;11.93;7.28;;;;;;;4.13;71.05;99543.97;4976181;28;20030;-62
2023/01/18 10:04:57;;;;;;;13.25;7.50;;;;;;;4.18;71.20;99539.69;4976388;28;20377;-62
2023/01/18 10:07:26;;;;;;;14.65;7.22;;;;;;;4.23;71.49;99541.53;4976078;28;20037;-63
2023/01/18 10:09:57;;;;;;;14.25;7.50;;;;;;;4.38;71.51;99540.00;4975928;28;20023;-63
2023/01/18 10:12:36;;;;;;;13.52;7.57;;;;;;;4.51;71.40;99541.94;4976006;28;20040;-63
2023/01/18 10:15:22;;;;;;;14.25;7.35;;;;;;;4.64;70.20;99546.47;4976207;28;20026;-62
2023/01/18 10:17:50;;;;;;;13.95;7.38;;;;;;;4.78;68.88;99549.28;4976081;28;20029;-62
2023/01/18 10:20:16;;;;;;;13.20;7.50;;;;;;;4.98;70.73;99558.25;4967943;28;20022;-63
2023/01/18 10:22:50;;;;;;;13.07;7.43;;;;;;;5.05;69.76;99550.47;4975715;28;20027;-63
2023/01/18 10:25:31;;;;;;;12.93;7.13;;;;;;;5.13;68.55;99551.44;4975747;28;20031;-62
2023/01/18 10:28:23;;;;;;;12.88;7.05;;;;;;;5.30;69.56;99554.25;4975922;28;20031;-62
2023/01/18 10:31:18;;;;;;;12.02;7.10;;;;;;;5.46;69.55;99553.56;4975452;28;20137;-63
2023/01/18 10:33:45;;;;;;;13.98;7.28;;;;;;;5.45;66.73;99562.28;4975416;28;20035;-62
2023/01/18 10:36:17;;;;;;;13.27;6.90;;;;;;;5.58;68.64;99553.69;4975417;28;20059;-63
2023/01/18 10:38:44;;;;;;;12.85;6.75;;;;;;;5.63;67.51;99557.22;4975536;28;20030;-63
2023/01/18 10:41:18;;;;;;;11.10;7.38;;;;;;;5.65;67.85;99558.16;4975655;28;20049;-62
2023/01/18 10:43:44;;;;;;;12.05;7.38;;;;;;;5.74;67.22;99559.97;4975410;28;20030;-63
2023/01/18 10:46:13;;;;;;;10.48;7.28;;;;;;;5.83;68.88;99551.31;4971946;28;20046;-62
2023/01/18 10:48:44;;;;;;;11.50;7.30;;;;;;;5.89;65.21;99559.22;4994632;28;20100;-62
2023/01/18 10:51:33;;;;;;;14.10;7.10;;;;;;;5.90;66.70;99553.97;4994792;28;20105;-63
2023/01/18 10:54:20;;;;;;;12.65;7.18;;;;;;;5.81;65.33;99561.78;4994883;28;20113;-63
2023/01/18 10:56:46;;;;;;;14.13;7.13;;;;;;;5.93;67.11;99563.66;4994270;28;20444;-63
2023/01/18 10:59:29;;;;;;;13.02;7.28;;;;;;;6.12;67.80;99564.69;4994536;28;20050;-63
2023/01/18 11:01:56;;;;;;;;;;;;;;;6.21;65.72;99560.41;4995130;28;20035;-62
2023/01/18 11:04:27;;;;;;;12.88;7.07;;;;;;;6.24;65.03;99557.78;4994313;28;20386;-63
2023/01/18 11:07:04;;;;;;;12.82;7.10;;;;;;;6.36;66.84;99558.75;4994348;28;20034;-63
2023/01/18 11:09:54;;;;;;;13.88;7.00;;;;;;;6.51;67.18;99562.38;4994386;28;20037;-62
2023/01/18 11:12:40;;;;;;;13.13;7.22;;;;;;;6.60;64.85;99558.03;4994647;28;20034;-63
2023/01/18 11:15:14;;;;;;;10.73;6.90;;;;;;;6.73;65.21;99562.50;4994554;28;20034;-63
2023/01/18 11:17:59;;;;;;;13.38;6.80;;;;;;;6.82;65.20;99561.66;4993998;28;20066;-63
2023/01/18 11:20:32;;;;;;;10.32;6.80;;;;;;;6.97;63.22;99573.09;4993179;28;20045;-63
2023/01/18 11:22:58;;;;;;;14.50;6.72;;;;;;;7.17;65.23;99573.19;4994007;28;20038;-63
2023/01/18 11:25:26;;;;;;;10.50;6.03;;;;;;;7.36;62.57;99575.88;4993936;28;20027;-63
2023/01/18 11:27:59;;;;;;;11.75;6.15;;;;;;;7.53;63.58;99576.81;4994212;28;20030;-62
2023/01/18 11:30:26;;;;;;;12.48;6.00;;;;;;;7.73;62.02;99571.59;4993984;28;20125;-63
2023/01/18 11:32:51;;;;;;;11.98;6.25;;;;;;;7.85;61.15;99563.72;4993745;28;20037;-63
2023/01/18 11:35:29;;;;;;;11.73;6.38;;;;;;;7.98;63.40;99557.59;4994079;28;20030;-63
2023/01/18 11:37:58;;;;;;;10.90;6.43;;;;;;;7.89;60.03;99556.72;4993742;28;20023;-63
2023/01/18 11:40:26;;;;;;;11.07;6.18;;;;;;;7.67;59.48;99555.84;4993626;28;20121;-63
2023/01/18 11:42:58;;;;;;;12.40;6.43;;;;;;;7.73;62.54;99559.31;4993697;28;20053;-63
2023/01/18 11:45:35;;;;;;;12.93;7.22;;;;;;;7.75;60.20;99557.59;4993388;28;20475;-63
2023/01/18 11:48:04;;;;;;;12.82;6.43;;;;;;;7.95;60.85;99554.09;4994033;28;20069;-62
2023/01/18 11:50:39;;;;;;;9.85;6.45;;;;;;;7.77;60.75;99554.97;4993929;28;20437;-62
2023/01/18 11:53:18;;;;;;;10.52;6.22;;;;;;;8.02;61.76;99561.13;4993806;28;20073;-63
2023/01/18 11:56:00;;;;;;;8.88;6.10;;;;;;;8.04;60.53;99556.72;4993777;28;20027;-62
2023/01/18 11:58:28;;;;;;;13.02;6.38;;;;;;;8.28;60.56;99561.13;4976325;28;20491;-63
2023/01/18 12:01:28;;;;;;;10.23;5.70;;;;;;;8.37;59.64;99563.75;4993685;28;20019;-63
2023/01/18 12:03:53;;;;;;;8.50;5.57;;;;;;;8.22;59.14;99559.38;4993675;28;20038;-63
2023/01/18 12:06:28;;;;;;;9.63;5.50;;;;;;;8.36;59.98;99574.28;4993678;28;20082;-63
2023/01/18 12:09:18;;;;;;;11.13;5.68;;;;;;;8.37;58.52;99570.78;4976402;28;20031;-63
2023/01/18 12:12:17;;;;;;;10.00;5.25;;;;;;;8.66;61.46;99576.88;4993654;28;20026;-63